createdAt,value
2022-11-01T00:00:10.505Z,9.93
2022-11-01T00:02:59.536Z,10.00
2022-11-01T00:06:19.297Z,9.88
2022-11-01T00:08:47.384Z,9.98
2022-11-01T00:11:16.797Z,9.94
2022-11-01T00:13:53.019Z,9.85
2022-11-01T00:16:21.189Z,9.65
2022-11-01T00:19:04.579Z,9.54
2022-11-01T00:21:32.713Z,9.54
2022-11-01T00:24:00.738Z,9.61
2022-11-01T00:26:27.684Z,9.68
2022-11-01T00:29:21.520Z,9.57
2022-11-01T00:31:54.545Z,9.63
2022-11-01T00:34:29.835Z,9.55
2022-11-01T00:37:05.075Z,9.55
2022-11-01T00:39:55.394Z,9.67
2022-11-01T00:42:33.009Z,9.65
2022-11-01T00:45:18.767Z,9.69
2022-11-01T00:48:08.437Z,9.70
2022-11-01T00:50:52.067Z,9.74
2022-11-01T00:53:20.759Z,9.67
2022-11-01T00:55:48.785Z,9.61
2022-11-01T00:58:15.769Z,9.64
2022-11-01T01:00:42.728Z,9.60
2022-11-01T01:03:10.749Z,9.53
2022-11-01T01:05:38.007Z,9.53
2022-11-01T01:08:05.365Z,9.50
2022-11-01T01:10:32.564Z,9.48
2022-11-01T01:12:59.790Z,9.47
2022-11-01T01:15:27.039Z,9.47
2022-11-01T01:17:58.709Z,9.42
2022-11-01T01:20:26.974Z,9.40
2022-11-01T01:22:57.206Z,9.35
2022-11-01T01:25:29.582Z,9.31
2022-11-01T01:27:57.777Z,9.30
2022-11-01T01:30:31.846Z,9.24
2022-11-01T01:33:05.728Z,9.22
2022-11-01T01:35:42.904Z,9.10
2022-11-01T01:38:18.031Z,9.10
2022-11-01T01:40:47.058Z,9.07
2022-11-01T01:43:21.141Z,9.06
2022-11-01T01:46:25.505Z,8.86
2022-11-01T01:49:01.635Z,8.93
2022-11-01T01:51:43.003Z,8.90
2022-11-01T01:54:24.206Z,8.88
2022-11-01T01:56:55.258Z,8.99
2022-11-01T02:00:01.158Z,9.02
2022-11-01T02:02:53.155Z,8.94
2022-11-01T02:05:34.175Z,8.91
2022-11-01T02:08:57.052Z,8.99
2022-11-01T02:12:01.279Z,8.93
2022-11-01T02:14:38.298Z,8.99
2022-11-01T02:17:49.607Z,8.95
2022-11-01T02:21:04.434Z,9.01
2022-11-01T02:23:53.109Z,8.96
2022-11-01T02:27:01.748Z,8.94
2022-11-01T02:30:16.004Z,8.94
2022-11-01T02:33:22.384Z,9.02
2022-11-01T02:39:47.505Z,9.01
2022-11-01T02:43:05.315Z,9.03
2022-11-01T02:46:21.240Z,9.03
2022-11-01T02:48:58.520Z,8.98
2022-11-01T02:51:44.505Z,9.04
2022-11-01T02:58:13.165Z,8.91
2022-11-01T03:00:43.066Z,8.98
2022-11-01T03:03:33.099Z,9.00
2022-11-01T03:06:52.794Z,9.14
2022-11-01T03:09:39.997Z,9.11
2022-11-01T03:12:54.632Z,9.11
2022-11-01T03:15:29.052Z,9.14
2022-11-01T03:18:10.865Z,9.14
2022-11-01T03:21:15.924Z,9.14
2022-11-01T03:24:03.283Z,9.06
2022-11-01T03:26:43.408Z,9.16
2022-11-01T03:29:14.555Z,9.20
2022-11-01T03:31:44.998Z,9.25
2022-11-01T03:34:15.178Z,9.21
2022-11-01T03:36:54.337Z,9.18
2022-11-01T03:39:31.941Z,9.26
2022-11-01T03:42:15.913Z,9.28
2022-11-01T03:44:49.747Z,9.39
2022-11-01T03:47:17.201Z,9.29
2022-11-01T03:50:13.028Z,9.43
2022-11-01T03:52:41.187Z,9.45
2022-11-01T03:55:43.427Z,9.35
2022-11-01T03:58:21.564Z,9.40
2022-11-01T04:00:48.771Z,9.31
2022-11-01T04:03:37.838Z,9.40
2022-11-01T04:06:11.365Z,9.29
2022-11-01T04:09:15.453Z,9.31
2022-11-01T04:12:01.535Z,9.38
2022-11-01T04:14:51.817Z,9.35
2022-11-01T04:17:42.917Z,9.42
2022-11-01T04:20:36.021Z,9.35
2022-11-01T04:23:13.786Z,9.34
2022-11-01T04:26:04.419Z,9.30
2022-11-01T04:28:37.477Z,9.42
2022-11-01T04:31:34.045Z,9.38
2022-11-01T04:34:13.334Z,9.29
2022-11-01T04:36:40.287Z,9.35
2022-11-01T04:39:09.449Z,9.38
2022-11-01T04:41:50.809Z,9.22
2022-11-01T04:44:20.015Z,9.33
2022-11-01T04:47:18.172Z,9.25
2022-11-01T04:50:22.304Z,9.31
2022-11-01T04:53:13.620Z,9.25
2022-11-01T04:56:06.314Z,9.23
2022-11-01T04:58:49.437Z,9.37
2022-11-01T05:01:16.768Z,9.32
2022-11-01T05:03:43.843Z,9.33
2022-11-01T05:06:10.917Z,9.28
2022-11-01T05:08:37.969Z,9.29
2022-11-01T05:11:06.138Z,9.13
2022-11-01T05:13:37.207Z,9.05
2022-11-01T05:16:19.784Z,9.04
2022-11-01T05:18:57.426Z,9.11
2022-11-01T05:21:33.488Z,9.06
2022-11-01T05:24:04.678Z,9.08
2022-11-01T05:26:34.975Z,9.11
2022-11-01T05:29:08.798Z,9.20
2022-11-01T05:31:38.121Z,9.20
2022-11-01T05:34:07.055Z,9.22
2022-11-01T05:36:34.098Z,8.92
2022-11-01T05:39:01.131Z,8.90
2022-11-01T05:41:42.595Z,8.96
2022-11-01T05:44:09.790Z,8.85
2022-11-01T05:46:37.074Z,8.87
2022-11-01T05:49:06.593Z,8.97
2022-11-01T05:51:34.121Z,8.93
2022-11-01T05:54:03.188Z,9.04
2022-11-01T05:56:33.356Z,9.03
2022-11-01T05:59:02.708Z,8.80
2022-11-01T06:01:29.985Z,8.66
2022-11-01T06:04:02.202Z,8.48
2022-11-01T06:06:30.394Z,8.67
2022-11-01T06:08:59.188Z,8.62
2022-11-01T06:11:28.158Z,8.44
2022-11-01T06:13:59.263Z,8.69
2022-11-01T06:16:29.040Z,8.68
2022-11-01T06:18:57.644Z,8.67
2022-11-01T06:21:30.170Z,8.71
2022-11-01T06:23:59.798Z,8.70
2022-11-01T06:26:26.976Z,8.60
2022-11-01T06:28:53.965Z,8.73
2022-11-01T06:31:22.600Z,8.79
2022-11-01T06:33:52.396Z,8.69
2022-11-01T06:36:20.737Z,8.80
2022-11-01T06:38:47.925Z,8.91
2022-11-01T06:41:17.148Z,8.85
2022-11-01T06:43:44.739Z,8.84
2022-11-01T06:46:11.777Z,8.91
2022-11-01T06:48:38.939Z,8.86
2022-11-01T06:51:08.308Z,8.99
2022-11-01T06:53:42.147Z,9.15
2022-11-01T06:56:13.636Z,9.26
2022-11-01T06:58:41.229Z,9.42
2022-11-01T07:01:08.460Z,9.50
2022-11-01T07:03:43.830Z,9.57
2022-11-01T07:06:16.215Z,9.68
2022-11-01T07:08:45.100Z,9.74
2022-11-01T07:11:20.134Z,9.71
2022-11-01T07:14:00.901Z,9.66
2022-11-01T07:16:45.144Z,9.48
2022-11-01T07:19:19.376Z,9.54
2022-11-01T07:21:47.534Z,9.61
2022-11-01T07:24:15.078Z,9.73
2022-11-01T07:26:51.478Z,9.69
2022-11-01T07:29:21.360Z,9.92
2022-11-01T07:31:50.495Z,10.09
2022-11-01T07:34:19.943Z,10.34
2022-11-01T07:36:48.508Z,10.46
2022-11-01T07:39:19.217Z,10.52
2022-11-01T07:41:47.418Z,10.69
2022-11-01T07:44:19.586Z,10.86
2022-11-01T07:46:50.554Z,11.07
2022-11-01T07:49:23.518Z,11.30
2022-11-01T07:51:50.942Z,11.53
2022-11-01T07:54:22.871Z,11.65
2022-11-01T07:57:08.957Z,11.73
2022-11-01T07:59:45.931Z,11.73
2022-11-01T08:03:07.739Z,11.75
2022-11-01T08:06:30.629Z,11.98
2022-11-01T08:08:57.760Z,12.20
2022-11-01T08:11:25.839Z,12.33
2022-11-01T08:13:56.047Z,12.49
2022-11-01T08:16:27.429Z,12.66
2022-11-01T08:18:55.445Z,12.85
2022-11-01T08:21:25.429Z,12.93
2022-11-01T08:23:54.471Z,12.93
2022-11-01T08:26:34.919Z,13.26
2022-11-01T08:29:07.860Z,13.47
2022-11-01T08:31:44.206Z,13.76
2022-11-01T08:34:15.972Z,13.84
2022-11-01T08:36:44.831Z,14.03
2022-11-01T08:39:13.877Z,14.26
2022-11-01T08:41:41.865Z,14.63
2022-11-01T08:44:09.033Z,15.56
2022-11-01T08:46:39.388Z,17.31
2022-11-01T08:49:18.919Z,17.79
2022-11-01T08:51:46.956Z,18.64
2022-11-01T08:54:16.285Z,19.58
2022-11-01T08:56:50.440Z,20.46
2022-11-01T08:59:17.499Z,20.97
2022-11-01T09:01:44.563Z,21.40
2022-11-01T09:06:45.601Z,20.92
2022-11-01T09:09:30.984Z,22.01
2022-11-01T09:12:01.024Z,22.58
2022-11-01T09:14:29.186Z,21.93
2022-11-01T09:16:58.694Z,22.22
2022-11-01T09:19:26.054Z,22.79
2022-11-01T09:22:01.300Z,22.52
2022-11-01T09:24:29.584Z,23.13
2022-11-01T09:26:57.543Z,23.76
2022-11-01T09:29:24.570Z,24.66
2022-11-01T09:31:53.504Z,24.40
2022-11-01T09:34:24.508Z,22.61
2022-11-01T09:37:13.082Z,23.67
2022-11-01T09:39:40.131Z,24.76
2022-11-01T09:42:36.064Z,25.66
2022-11-01T09:45:16.203Z,25.92
2022-11-01T09:47:54.224Z,25.69
2022-11-01T09:50:27.422Z,26.14
2022-11-01T09:52:56.851Z,26.45
2022-11-01T09:55:41.942Z,26.90
2022-11-01T09:58:39.861Z,26.06
2022-11-01T10:01:51.524Z,23.81
2022-11-01T10:04:56.364Z,23.69
2022-11-01T10:07:32.665Z,22.18
2022-11-01T10:10:12.272Z,23.65
2022-11-01T10:12:47.625Z,24.32
2022-11-01T10:15:51.964Z,24.30
2022-11-01T10:18:28.446Z,24.35
2022-11-01T10:21:10.543Z,25.46
2022-11-01T10:23:50.505Z,22.76
2022-11-01T10:26:30.516Z,22.24
2022-11-01T10:29:09.367Z,22.14
2022-11-01T10:31:45.983Z,21.87
2022-11-01T10:34:22.278Z,21.98
2022-11-01T10:36:56.522Z,21.27
2022-11-01T10:39:54.125Z,20.43
2022-11-01T10:42:24.103Z,21.46
2022-11-01T10:44:55.663Z,21.79
2022-11-01T10:47:25.209Z,22.02
2022-11-01T10:50:07.937Z,22.34
2022-11-01T10:52:48.424Z,23.49
2022-11-01T10:55:23.165Z,21.95
2022-11-01T10:58:05.366Z,21.66
2022-11-01T11:00:56.244Z,22.10
2022-11-01T11:03:27.243Z,21.81
2022-11-01T11:06:07.826Z,21.67
2022-11-01T11:08:38.967Z,22.24
2022-11-01T11:11:11.722Z,21.83
2022-11-01T11:13:45.963Z,21.73
2022-11-01T11:16:30.635Z,21.07
2022-11-01T11:19:36.166Z,20.80
2022-11-01T11:22:07.809Z,20.45
2022-11-01T11:24:45.123Z,20.63
2022-11-01T11:27:34.685Z,21.38
2022-11-01T11:30:08.899Z,21.96
2022-11-01T11:32:40.863Z,22.18
2022-11-01T11:35:14.440Z,22.46
2022-11-01T11:37:56.045Z,21.94
2022-11-01T11:40:48.907Z,22.59
2022-11-01T11:43:34.441Z,21.54
2022-11-01T11:46:06.244Z,20.52
2022-11-01T11:48:48.408Z,20.15
2022-11-01T11:51:19.304Z,20.05
2022-11-01T11:54:34.568Z,20.41
2022-11-01T11:57:27.451Z,19.61
2022-11-01T12:00:06.549Z,19.28
2022-11-01T12:02:37.113Z,18.96
2022-11-01T12:05:08.948Z,19.46
2022-11-01T12:07:59.145Z,20.39
2022-11-01T12:10:47.964Z,21.11
2022-11-01T12:13:27.764Z,22.32
2022-11-01T12:16:18.597Z,23.20
2022-11-01T12:18:55.810Z,24.00
2022-11-01T12:21:36.305Z,24.22
2022-11-01T12:24:25.265Z,24.34
2022-11-01T12:27:02.062Z,24.27
2022-11-01T12:30:09.005Z,24.03
2022-11-01T12:32:59.734Z,23.23
2022-11-01T12:35:31.187Z,22.83
2022-11-01T12:38:01.707Z,22.79
2022-11-01T12:40:37.282Z,21.95
2022-11-01T12:43:16.965Z,21.11
2022-11-01T12:46:23.303Z,20.60
2022-11-01T12:49:11.746Z,20.78
2022-11-01T12:51:44.410Z,20.90
2022-11-01T12:54:27.643Z,21.28
2022-11-01T12:56:57.052Z,21.24
2022-11-01T12:59:30.954Z,22.03
2022-11-01T13:02:30.581Z,21.53
2022-11-01T13:05:06.029Z,21.17
2022-11-01T13:07:53.446Z,21.56
2022-11-01T13:10:48.139Z,20.90
2022-11-01T13:13:47.565Z,21.42
2022-11-01T13:16:34.762Z,21.59
2022-11-01T13:19:35.103Z,21.50
2022-11-01T13:22:54.893Z,21.74
2022-11-01T13:25:48.263Z,22.15
2022-11-01T13:28:44.671Z,22.71
2022-11-01T13:31:45.580Z,23.36
2022-11-01T13:34:33.375Z,23.43
2022-11-01T13:37:11.235Z,22.61
2022-11-01T13:40:06.922Z,22.09
2022-11-01T13:42:41.925Z,21.49
2022-11-01T13:45:38.586Z,20.93
2022-11-01T13:48:20.878Z,20.89
2022-11-01T13:51:12.458Z,20.98
2022-11-01T13:53:43.416Z,21.41
2022-11-01T13:56:31.100Z,21.23
2022-11-01T13:58:59.257Z,21.16
2022-11-01T14:01:31.496Z,20.77
2022-11-01T14:04:12.303Z,19.59
2022-11-01T14:06:44.533Z,19.39
2022-11-01T14:09:27.940Z,19.38
2022-11-01T14:12:32.401Z,19.54
2022-11-01T14:15:27.203Z,19.59
2022-11-01T14:18:03.738Z,19.48
2022-11-01T14:20:40.722Z,19.40
2022-11-01T14:23:33.499Z,19.25
2022-11-01T14:26:18.738Z,19.08
2022-11-01T14:28:59.582Z,19.17
2022-11-01T14:31:39.502Z,18.97
2022-11-01T14:34:09.832Z,19.06
2022-11-01T14:36:46.165Z,19.14
2022-11-01T14:39:19.839Z,19.00
2022-11-01T14:41:55.958Z,18.62
2022-11-01T14:44:35.238Z,18.32
2022-11-01T14:47:19.338Z,18.19
2022-11-01T14:49:50.844Z,18.00
2022-11-01T14:52:41.258Z,17.57
2022-11-01T14:55:32.599Z,17.17
2022-11-01T14:58:23.683Z,17.01
2022-11-01T15:00:57.407Z,16.84
2022-11-01T15:03:26.579Z,16.65
2022-11-01T15:05:53.836Z,16.46
2022-11-01T15:08:36.344Z,16.43
2022-11-01T15:11:06.264Z,16.41
2022-11-01T15:13:39.352Z,16.30
2022-11-01T15:16:26.957Z,16.15
2022-11-01T15:19:02.936Z,16.09
2022-11-01T15:21:31.491Z,16.06
2022-11-01T15:24:04.062Z,15.76
2022-11-01T15:27:14.200Z,15.69
2022-11-01T15:29:43.931Z,15.64
2022-11-01T15:32:32.107Z,15.77
2022-11-01T15:35:04.504Z,15.49
2022-11-01T15:37:37.318Z,15.34
2022-11-01T15:40:27.568Z,15.54
2022-11-01T15:43:02.294Z,15.45
2022-11-01T15:45:33.777Z,15.33
2022-11-01T15:48:08.758Z,15.38
2022-11-01T15:50:39.090Z,15.57
2022-11-01T15:53:14.646Z,15.64
2022-11-01T15:55:55.198Z,15.87
2022-11-01T15:58:38.924Z,15.79
2022-11-01T16:01:23.503Z,15.57
2022-11-01T16:04:10.191Z,15.70
2022-11-01T16:06:52.299Z,15.38
2022-11-01T16:09:46.313Z,15.45
2022-11-01T16:12:36.378Z,15.38
2022-11-01T16:15:20.407Z,15.10
2022-11-01T16:17:52.284Z,14.78
2022-11-01T16:20:32.405Z,14.73
2022-11-01T16:23:02.606Z,14.61
2022-11-01T16:25:34.161Z,14.43
2022-11-01T16:28:05.133Z,14.06
2022-11-01T16:30:53.430Z,13.90
2022-11-01T16:33:44.805Z,13.62
2022-11-01T16:36:48.668Z,13.74
2022-11-01T16:39:32.290Z,13.67
2022-11-01T16:41:59.681Z,13.69
2022-11-01T16:44:56.143Z,13.48
2022-11-01T16:47:47.874Z,13.48
2022-11-01T16:50:46.608Z,13.44
2022-11-01T16:53:13.730Z,13.52
2022-11-01T16:56:23.119Z,13.61
2022-11-01T16:59:22.785Z,13.52
2022-11-01T17:02:26.053Z,13.69
2022-11-01T17:06:01.592Z,13.80
2022-11-01T17:08:32.995Z,13.64
2022-11-01T17:11:02.052Z,13.67
2022-11-01T17:13:30.246Z,13.53
2022-11-01T17:16:00.911Z,13.45
2022-11-01T17:18:38.575Z,13.42
2022-11-01T17:21:24.470Z,13.31
2022-11-01T17:24:17.541Z,13.39
2022-11-01T17:26:45.953Z,13.18
2022-11-01T17:29:30.131Z,13.09
2022-11-01T17:32:10.219Z,13.07
2022-11-01T17:34:44.653Z,13.17
2022-11-01T17:37:17.830Z,13.16
2022-11-01T17:39:52.656Z,13.07
2022-11-01T17:42:20.185Z,13.05
2022-11-01T17:44:52.133Z,12.94
2022-11-01T17:47:36.405Z,13.09
2022-11-01T17:50:42.565Z,13.04
2022-11-01T17:53:13.348Z,12.98
2022-11-01T17:55:56.261Z,13.00
2022-11-01T17:58:33.491Z,13.15
2022-11-01T18:01:09.156Z,13.21
2022-11-01T18:03:37.254Z,13.14
2022-11-01T18:06:07.618Z,12.77
2022-11-01T18:08:48.119Z,12.85
2022-11-01T18:11:49.467Z,12.91
2022-11-01T18:14:23.096Z,12.74
2022-11-01T18:17:35.337Z,12.93
2022-11-01T18:20:32.399Z,12.98
2022-11-01T18:23:19.270Z,12.80
2022-11-01T18:25:53.937Z,12.91
2022-11-01T18:28:32.196Z,12.84
2022-11-01T18:31:24.205Z,12.93
2022-11-01T18:34:38.457Z,12.94
2022-11-01T18:37:26.698Z,12.88
2022-11-01T18:40:33.814Z,13.07
2022-11-01T18:43:38.871Z,13.14
2022-11-01T18:46:25.228Z,12.93
2022-11-01T18:49:14.009Z,12.94
2022-11-01T18:51:43.348Z,12.92
2022-11-01T18:54:12.237Z,12.95
2022-11-01T18:56:48.909Z,12.91
2022-11-01T18:59:33.274Z,12.93
2022-11-01T19:02:27.796Z,12.81
2022-11-01T19:05:18.984Z,12.65
2022-11-01T19:08:26.223Z,12.51
2022-11-01T19:11:16.596Z,12.53
2022-11-01T19:14:40.976Z,12.49
2022-11-01T19:17:36.697Z,12.58
2022-11-01T19:20:21.578Z,12.39
2022-11-01T19:23:10.725Z,12.64
2022-11-01T19:25:44.183Z,12.59
2022-11-01T19:28:26.651Z,12.36
2022-11-01T19:30:58.408Z,12.23
2022-11-01T19:33:37.971Z,12.18
2022-11-01T19:36:15.332Z,12.19
2022-11-01T19:38:45.715Z,12.07
2022-11-01T19:41:35.414Z,12.15
2022-11-01T19:44:14.809Z,12.10
2022-11-01T19:47:30.788Z,12.02
2022-11-01T19:49:59.901Z,11.87
2022-11-01T19:52:44.525Z,12.03
2022-11-01T19:55:35.386Z,12.03
2022-11-01T19:58:43.380Z,12.07
2022-11-01T20:01:24.996Z,12.11
2022-11-01T20:04:01.855Z,12.09
2022-11-01T20:06:36.170Z,12.05
2022-11-01T20:09:12.591Z,12.17
2022-11-01T20:11:46.368Z,12.27
2022-11-01T20:14:13.908Z,12.32
2022-11-01T20:16:51.236Z,12.44
2022-11-01T20:19:24.016Z,12.43
2022-11-01T20:21:52.784Z,12.48
2022-11-01T20:24:26.522Z,12.37
2022-11-01T20:27:00.769Z,12.39
2022-11-01T20:29:29.390Z,12.48
2022-11-01T20:32:01.989Z,12.55
2022-11-01T20:34:29.155Z,12.51
2022-11-01T20:37:27.040Z,12.58
2022-11-01T20:40:04.373Z,12.73
2022-11-01T20:43:13.623Z,12.68
2022-11-01T20:45:51.481Z,12.61
2022-11-01T20:48:19.587Z,12.72
2022-11-01T20:51:02.625Z,12.82
2022-11-01T20:53:30.929Z,12.74
2022-11-01T20:56:07.475Z,12.78
2022-11-01T20:58:40.873Z,12.95
2022-11-01T21:01:19.606Z,12.88
2022-11-01T21:03:48.356Z,12.86
2022-11-01T21:06:31.189Z,12.90
2022-11-01T21:08:59.576Z,13.08
2022-11-01T21:11:44.442Z,12.93
2022-11-01T21:14:23.095Z,13.09
2022-11-01T21:16:53.468Z,13.19
2022-11-01T21:19:30.270Z,13.17
2022-11-01T21:22:01.119Z,13.24
2022-11-01T21:24:34.711Z,13.23
2022-11-01T21:27:18.850Z,13.15
2022-11-01T21:30:01.258Z,13.15
2022-11-01T21:32:37.733Z,13.14
2022-11-01T21:35:39.508Z,13.00
2022-11-01T21:38:34.301Z,12.82
2022-11-01T21:41:11.078Z,12.82
2022-11-01T21:43:38.343Z,12.96
2022-11-01T21:46:14.844Z,13.00
2022-11-01T21:48:41.873Z,13.05
2022-11-01T21:51:15.018Z,13.05
2022-11-01T21:53:50.504Z,12.82
2022-11-01T21:56:24.667Z,12.68
2022-11-01T21:58:51.562Z,12.57
2022-11-01T22:01:19.710Z,12.74
2022-11-01T22:03:46.958Z,12.74
2022-11-01T22:06:13.878Z,12.68
2022-11-01T22:08:42.158Z,12.63
2022-11-01T22:11:12.263Z,12.39
2022-11-01T22:13:39.407Z,12.56
2022-11-01T22:16:10.446Z,12.54
2022-11-01T22:18:38.479Z,12.35
2022-11-01T22:21:17.901Z,12.34
2022-11-01T22:23:45.998Z,12.44
2022-11-01T22:26:23.495Z,12.44
2022-11-01T22:28:52.228Z,12.45
2022-11-01T22:31:25.398Z,12.24
2022-11-01T22:33:55.068Z,12.26
2022-11-01T22:36:27.143Z,12.36
2022-11-01T22:39:27.058Z,12.33
2022-11-01T22:42:16.223Z,12.36
2022-11-01T22:45:04.385Z,12.43
2022-11-01T22:47:32.317Z,12.40
2022-11-01T22:50:03.168Z,12.57
2022-11-01T22:52:50.558Z,12.54
2022-11-01T22:55:27.451Z,12.52
2022-11-01T22:58:00.199Z,12.64
2022-11-01T23:00:39.535Z,12.62
2022-11-01T23:03:23.154Z,12.58
2022-11-01T23:05:53.945Z,12.55
2022-11-01T23:08:32.999Z,12.52
2022-11-01T23:11:02.058Z,12.44
2022-11-01T23:13:56.622Z,12.38
2022-11-01T23:16:44.285Z,12.31
2022-11-01T23:19:13.645Z,12.33
2022-11-01T23:21:41.753Z,12.44
2022-11-01T23:24:12.037Z,12.54
2022-11-01T23:26:42.156Z,12.53
2022-11-01T23:29:14.390Z,12.55
2022-11-01T23:31:44.679Z,12.47
2022-11-01T23:34:12.190Z,12.41
2022-11-01T23:36:41.323Z,12.33
2022-11-01T23:39:12.413Z,12.27
2022-11-01T23:41:53.026Z,12.24
2022-11-01T23:44:28.942Z,12.19
2022-11-01T23:47:10.033Z,12.06
2022-11-01T23:49:42.491Z,12.14
2022-11-01T23:52:41.439Z,12.18
2022-11-01T23:55:36.749Z,12.14
2022-11-01T23:58:06.977Z,12.06
